sensor_id;sensor_type;location;lat;lon;timestamp;P1;durP1;ratioP1;P2;durP2;ratioP2
20423;SDS011;10371;49.042;8.002;2023-08-24T00:00:50;4.25;;;2.90;;
20423;SDS011;10371;49.042;8.002;2023-08-24T00:01:50;4.10;;;3.30;;
20423;SDS011;10371;49.042;8.002;2023-08-24T00:02:51;3.63;;;3.33;;
20423;SDS011;10371;49.042;8.002;2023-08-24T00:03:51;3.08;;;2.88;;
20423;SDS011;10371;49.042;8.002;2023-08-24T00:04:51;3.90;;;3.58;;
20423;SDS011;10371;49.042;8.002;2023-08-24T00:05:52;4.20;;;3.40;;
20423;SDS011;10371;49.042;8.002;2023-08-24T00:06:52;3.17;;;2.88;;
20423;SDS011;10371;49.042;8.002;2023-08-24T00:07:52;4.78;;;3.50;;
20423;SDS011;10371;49.042;8.002;2023-08-24T00:08:53;3.45;;;3.20;;
20423;SDS011;10371;49.042;8.002;2023-08-24T00:09:53;3.70;;;3.40;;
20423;SDS011;10371;49.042;8.002;2023-08-24T00:10:53;3.40;;;3.10;;
20423;SDS011;10371;49.042;8.002;2023-08-24T00:11:54;3.60;;;3.30;;
20423;SDS011;10371;49.042;8.002;2023-08-24T00:12:55;3.45;;;3.10;;
20423;SDS011;10371;49.042;8.002;2023-08-24T00:13:55;4.00;;;3.22;;
20423;SDS011;10371;49.042;8.002;2023-08-24T00:14:56;3.40;;;3.20;;
20423;SDS011;10371;49.042;8.002;2023-08-24T00:15:56;3.08;;;2.85;;
20423;SDS011;10371;49.042;8.002;2023-08-24T00:16:56;3.63;;;3.33;;
20423;SDS011;10371;49.042;8.002;2023-08-24T00:17:56;4.43;;;3.58;;
20423;SDS011;10371;49.042;8.002;2023-08-24T00:18:57;3.67;;;3.38;;
20423;SDS011;10371;49.042;8.002;2023-08-24T00:19:57;3.67;;;3.38;;
20423;SDS011;10371;49.042;8.002;2023-08-24T00:20:58;3.95;;;3.20;;
20423;SDS011;10371;49.042;8.002;2023-08-24T00:21:58;3.25;;;3.05;;
20423;SDS011;10371;49.042;8.002;2023-08-24T00:22:58;4.00;;;3.08;;
20423;SDS011;10371;49.042;8.002;2023-08-24T00:23:59;3.65;;;3.30;;
20423;SDS011;10371;49.042;8.002;2023-08-24T00:24:59;3.55;;;3.25;;
20423;SDS011;10371;49.042;8.002;2023-08-24T00:26:00;4.43;;;3.40;;
20423;SDS011;10371;49.042;8.002;2023-08-24T00:27:00;4.20;;;3.55;;
20423;SDS011;10371;49.042;8.002;2023-08-24T00:28:00;5.53;;;3.97;;
20423;SDS011;10371;49.042;8.002;2023-08-24T00:29:01;4.10;;;3.22;;
20423;SDS011;10371;49.042;8.002;2023-08-24T00:30:04;3.90;;;3.50;;
20423;SDS011;10371;49.042;8.002;2023-08-24T00:31:06;3.83;;;3.33;;
20423;SDS011;10371;49.042;8.002;2023-08-24T00:32:06;3.97;;;3.58;;
20423;SDS011;10371;49.042;8.002;2023-08-24T00:33:08;3.65;;;3.35;;
20423;SDS011;10371;49.042;8.002;2023-08-24T00:34:08;4.00;;;3.40;;
20423;SDS011;10371;49.042;8.002;2023-08-24T00:35:09;3.83;;;3.53;;
20423;SDS011;10371;49.042;8.002;2023-08-24T00:36:10;3.38;;;3.08;;
20423;SDS011;10371;49.042;8.002;2023-08-24T00:37:10;5.88;;;3.72;;
20423;SDS011;10371;49.042;8.002;2023-08-24T00:38:11;3.60;;;3.30;;
20423;SDS011;10371;49.042;8.002;2023-08-24T00:39:11;3.75;;;3.45;;
20423;SDS011;10371;49.042;8.002;2023-08-24T00:40:12;4.82;;;3.47;;
20423;SDS011;10371;49.042;8.002;2023-08-24T00:41:12;3.67;;;3.08;;
20423;SDS011;10371;49.042;8.002;2023-08-24T00:42:12;5.63;;;3.60;;
20423;SDS011;10371;49.042;8.002;2023-08-24T00:43:15;4.28;;;3.65;;
20423;SDS011;10371;49.042;8.002;2023-08-24T00:44:15;3.20;;;3.00;;
20423;SDS011;10371;49.042;8.002;2023-08-24T00:45:15;4.18;;;3.42;;
20423;SDS011;10371;49.042;8.002;2023-08-24T00:46:15;3.70;;;3.40;;
20423;SDS011;10371;49.042;8.002;2023-08-24T00:47:16;4.18;;;3.78;;
20423;SDS011;10371;49.042;8.002;2023-08-24T00:48:18;4.72;;;3.60;;
20423;SDS011;10371;49.042;8.002;2023-08-24T00:49:19;3.53;;;3.22;;
20423;SDS011;10371;49.042;8.002;2023-08-24T00:50:21;3.55;;;3.25;;
20423;SDS011;10371;49.042;8.002;2023-08-24T00:51:22;3.88;;;3.50;;
20423;SDS011;10371;49.042;8.002;2023-08-24T00:52:24;3.80;;;3.50;;
20423;SDS011;10371;49.042;8.002;2023-08-24T00:53:28;3.47;;;3.17;;
20423;SDS011;10371;49.042;8.002;2023-08-24T00:54:29;3.60;;;3.30;;
20423;SDS011;10371;49.042;8.002;2023-08-24T00:55:29;3.53;;;3.10;;
20423;SDS011;10371;49.042;8.002;2023-08-24T00:56:30;3.60;;;3.28;;
20423;SDS011;10371;49.042;8.002;2023-08-24T00:57:30;4.30;;;3.00;;
20423;SDS011;10371;49.042;8.002;2023-08-24T00:58:31;3.88;;;3.33;;
20423;SDS011;10371;49.042;8.002;2023-08-24T00:59:33;4.45;;;3.38;;
20423;SDS011;10371;49.042;8.002;2023-08-24T01:00:34;7.85;;;3.30;;
20423;SDS011;10371;49.042;8.002;2023-08-24T01:01:35;4.10;;;3.80;;
20423;SDS011;10371;49.042;8.002;2023-08-24T01:02:35;3.60;;;3.28;;
20423;SDS011;10371;49.042;8.002;2023-08-24T01:03:37;3.83;;;3.30;;
20423;SDS011;10371;49.042;8.002;2023-08-24T01:04:37;3.65;;;3.35;;
20423;SDS011;10371;49.042;8.002;2023-08-24T01:05:37;3.60;;;3.30;;
20423;SDS011;10371;49.042;8.002;2023-08-24T01:06:38;4.25;;;3.85;;
20423;SDS011;10371;49.042;8.002;2023-08-24T01:07:39;3.92;;;3.63;;
20423;SDS011;10371;49.042;8.002;2023-08-24T01:08:40;3.70;;;3.40;;
20423;SDS011;10371;49.042;8.002;2023-08-24T01:09:40;3.53;;;3.20;;
20423;SDS011;10371;49.042;8.002;2023-08-24T01:10:44;3.40;;;3.15;;
20423;SDS011;10371;49.042;8.002;2023-08-24T01:12:17;4.00;;;3.60;;
20423;SDS011;10371;49.042;8.002;2023-08-24T01:13:21;3.45;;;3.25;;
20423;SDS011;10371;49.042;8.002;2023-08-24T01:14:55;4.22;;;3.60;;
20423;SDS011;10371;49.042;8.002;2023-08-24T01:16:08;3.60;;;3.28;;
20423;SDS011;10371;49.042;8.002;2023-08-24T01:17:17;3.85;;;3.35;;
20423;SDS011;10371;49.042;8.002;2023-08-24T01:18:21;3.50;;;3.20;;
20423;SDS011;10371;49.042;8.002;2023-08-24T01:20:33;4.00;;;3.60;;
20423;SDS011;10371;49.042;8.002;2023-08-24T01:21:34;3.78;;;3.47;;
20423;SDS011;10371;49.042;8.002;2023-08-24T01:25:40;3.42;;;3.10;;
20423;SDS011;10371;49.042;8.002;2023-08-24T01:26:51;3.47;;;2.92;;
20423;SDS011;10371;49.042;8.002;2023-08-24T01:27:53;3.85;;;3.35;;
20423;SDS011;10371;49.042;8.002;2023-08-24T01:28:55;3.80;;;3.40;;
20423;SDS011;10371;49.042;8.002;2023-08-24T01:29:55;3.53;;;3.22;;
20423;SDS011;10371;49.042;8.002;2023-08-24T01:30:56;3.88;;;3.50;;
20423;SDS011;10371;49.042;8.002;2023-08-24T01:31:57;3.88;;;3.53;;
20423;SDS011;10371;49.042;8.002;2023-08-24T01:32:57;4.75;;;3.47;;
20423;SDS011;10371;49.042;8.002;2023-08-24T01:33:57;4.78;;;3.65;;
20423;SDS011;10371;49.042;8.002;2023-08-24T01:34:59;3.63;;;3.40;;
20423;SDS011;10371;49.042;8.002;2023-08-24T01:36:02;3.55;;;3.25;;
20423;SDS011;10371;49.042;8.002;2023-08-24T01:37:02;4.43;;;3.28;;
20423;SDS011;10371;49.042;8.002;2023-08-24T01:38:03;3.65;;;3.15;;
20423;SDS011;10371;49.042;8.002;2023-08-24T01:39:14;3.72;;;3.42;;
20423;SDS011;10371;49.042;8.002;2023-08-24T01:40:29;3.53;;;3.22;;
20423;SDS011;10371;49.042;8.002;2023-08-24T01:41:39;3.42;;;3.13;;
20423;SDS011;10371;49.042;8.002;2023-08-24T01:43:27;3.67;;;3.20;;
20423;SDS011;10371;49.042;8.002;2023-08-24T01:44:09;3.45;;;3.15;;
20423;SDS011;10371;49.042;8.002;2023-08-24T01:45:12;3.70;;;3.40;;
20423;SDS011;10371;49.042;8.002;2023-08-24T01:46:16;3.38;;;3.17;;
20423;SDS011;10371;49.042;8.002;2023-08-24T01:47:19;4.07;;;3.50;;
20423;SDS011;10371;49.042;8.002;2023-08-24T01:48:21;3.83;;;3.17;;
20423;SDS011;10371;49.042;8.002;2023-08-24T01:49:22;3.88;;;3.40;;
20423;SDS011;10371;49.042;8.002;2023-08-24T01:50:24;4.70;;;2.88;;
20423;SDS011;10371;49.042;8.002;2023-08-24T01:51:25;3.67;;;3.40;;
20423;SDS011;10371;49.042;8.002;2023-08-24T01:52:26;3.45;;;3.15;;
20423;SDS011;10371;49.042;8.002;2023-08-24T01:53:28;4.53;;;3.20;;
20423;SDS011;10371;49.042;8.002;2023-08-24T01:54:29;3.65;;;3.28;;
20423;SDS011;10371;49.042;8.002;2023-08-24T01:55:31;4.20;;;3.45;;
20423;SDS011;10371;49.042;8.002;2023-08-24T01:56:31;4.43;;;3.03;;
20423;SDS011;10371;49.042;8.002;2023-08-24T01:57:32;4.70;;;3.42;;
20423;SDS011;10371;49.042;8.002;2023-08-24T01:58:32;3.40;;;3.20;;
20423;SDS011;10371;49.042;8.002;2023-08-24T01:59:32;3.70;;;3.40;;
20423;SDS011;10371;49.042;8.002;2023-08-24T02:00:32;3.38;;;3.10;;
20423;SDS011;10371;49.042;8.002;2023-08-24T02:01:33;3.78;;;3.30;;
20423;SDS011;10371;49.042;8.002;2023-08-24T02:02:34;3.30;;;3.10;;
20423;SDS011;10371;49.042;8.002;2023-08-24T02:03:35;3.40;;;3.00;;
20423;SDS011;10371;49.042;8.002;2023-08-24T02:04:35;3.33;;;3.03;;
20423;SDS011;10371;49.042;8.002;2023-08-24T02:05:35;5.88;;;3.60;;
20423;SDS011;10371;49.042;8.002;2023-08-24T02:06:35;3.15;;;2.85;;
20423;SDS011;10371;49.042;8.002;2023-08-24T02:07:36;2.97;;;2.78;;
20423;SDS011;10371;49.042;8.002;2023-08-24T02:08:36;3.45;;;3.15;;
20423;SDS011;10371;49.042;8.002;2023-08-24T02:09:36;3.30;;;2.97;;
20423;SDS011;10371;49.042;8.002;2023-08-24T02:10:36;3.45;;;3.15;;
20423;SDS011;10371;49.042;8.002;2023-08-24T02:11:37;3.58;;;3.28;;
20423;SDS011;10371;49.042;8.002;2023-08-24T02:12:37;3.70;;;2.90;;
20423;SDS011;10371;49.042;8.002;2023-08-24T02:13:37;5.57;;;3.20;;
20423;SDS011;10371;49.042;8.002;2023-08-24T02:14:37;3.85;;;3.13;;
20423;SDS011;10371;49.042;8.002;2023-08-24T02:15:38;3.03;;;2.83;;
20423;SDS011;10371;49.042;8.002;2023-08-24T02:16:39;3.47;;;3.22;;
20423;SDS011;10371;49.042;8.002;2023-08-24T02:17:39;3.50;;;3.05;;
20423;SDS011;10371;49.042;8.002;2023-08-24T02:18:40;3.20;;;2.90;;
20423;SDS011;10371;49.042;8.002;2023-08-24T02:19:40;3.60;;;3.30;;
20423;SDS011;10371;49.042;8.002;2023-08-24T02:20:43;3.53;;;2.97;;
20423;SDS011;10371;49.042;8.002;2023-08-24T02:21:43;5.10;;;3.30;;
20423;SDS011;10371;49.042;8.002;2023-08-24T02:22:43;3.10;;;2.80;;
20423;SDS011;10371;49.042;8.002;2023-08-24T02:23:43;2.97;;;2.78;;
20423;SDS011;10371;49.042;8.002;2023-08-24T02:24:44;3.47;;;3.00;;
20423;SDS011;10371;49.042;8.002;2023-08-24T02:25:44;3.47;;;3.17;;
20423;SDS011;10371;49.042;8.002;2023-08-24T02:26:44;3.30;;;3.00;;
20423;SDS011;10371;49.042;8.002;2023-08-24T02:27:45;4.13;;;3.03;;
20423;SDS011;10371;49.042;8.002;2023-08-24T02:28:45;3.83;;;2.95;;
20423;SDS011;10371;49.042;8.002;2023-08-24T02:29:45;3.35;;;3.05;;
20423;SDS011;10371;49.042;8.002;2023-08-24T02:30:45;4.72;;;3.22;;
20423;SDS011;10371;49.042;8.002;2023-08-24T02:31:46;3.38;;;3.08;;
20423;SDS011;10371;49.042;8.002;2023-08-24T02:32:49;3.75;;;3.20;;
20423;SDS011;10371;49.042;8.002;2023-08-24T02:33:49;3.20;;;2.90;;
20423;SDS011;10371;49.042;8.002;2023-08-24T02:34:49;4.18;;;3.25;;
20423;SDS011;10371;49.042;8.002;2023-08-24T02:35:50;3.97;;;3.58;;
20423;SDS011;10371;49.042;8.002;2023-08-24T02:36:50;4.25;;;3.22;;
20423;SDS011;10371;49.042;8.002;2023-08-24T02:37:50;3.90;;;3.00;;
20423;SDS011;10371;49.042;8.002;2023-08-24T02:38:51;3.42;;;3.13;;
20423;SDS011;10371;49.042;8.002;2023-08-24T02:39:51;3.30;;;3.00;;
20423;SDS011;10371;49.042;8.002;2023-08-24T02:41:01;3.88;;;3.38;;
20423;SDS011;10371;49.042;8.002;2023-08-24T02:42:02;4.13;;;3.20;;
20423;SDS011;10371;49.042;8.002;2023-08-24T02:43:03;4.60;;;3.40;;
20423;SDS011;10371;49.042;8.002;2023-08-24T02:44:03;3.20;;;3.00;;
20423;SDS011;10371;49.042;8.002;2023-08-24T02:45:03;3.25;;;2.95;;
20423;SDS011;10371;49.042;8.002;2023-08-24T02:46:06;3.15;;;2.85;;
20423;SDS011;10371;49.042;8.002;2023-08-24T02:47:07;3.40;;;3.10;;
20423;SDS011;10371;49.042;8.002;2023-08-24T02:48:08;3.58;;;3.28;;
20423;SDS011;10371;49.042;8.002;2023-08-24T02:49:08;3.35;;;3.10;;
20423;SDS011;10371;49.042;8.002;2023-08-24T02:50:08;3.42;;;3.22;;
20423;SDS011;10371;49.042;8.002;2023-08-24T02:51:09;4.53;;;3.53;;
20423;SDS011;10371;49.042;8.002;2023-08-24T02:52:10;3.38;;;3.08;;
20423;SDS011;10371;49.042;8.002;2023-08-24T02:53:10;4.72;;;3.13;;
20423;SDS011;10371;49.042;8.002;2023-08-24T02:54:10;3.78;;;3.45;;
20423;SDS011;10371;49.042;8.002;2023-08-24T02:55:10;4.47;;;3.10;;
20423;SDS011;10371;49.042;8.002;2023-08-24T02:56:11;3.70;;;3.40;;
20423;SDS011;10371;49.042;8.002;2023-08-24T02:57:11;3.60;;;3.30;;
20423;SDS011;10371;49.042;8.002;2023-08-24T02:58:11;3.22;;;2.92;;
20423;SDS011;10371;49.042;8.002;2023-08-24T02:59:12;4.18;;;3.47;;
20423;SDS011;10371;49.042;8.002;2023-08-24T03:00:12;4.70;;;3.50;;
20423;SDS011;10371;49.042;8.002;2023-08-24T03:01:13;3.83;;;3.13;;
20423;SDS011;10371;49.042;8.002;2023-08-24T03:02:14;3.85;;;3.55;;
20423;SDS011;10371;49.042;8.002;2023-08-24T03:03:14;3.28;;;3.08;;
20423;SDS011;10371;49.042;8.002;2023-08-24T03:04:15;3.42;;;3.05;;
20423;SDS011;10371;49.042;8.002;2023-08-24T03:05:15;3.80;;;3.50;;
20423;SDS011;10371;49.042;8.002;2023-08-24T03:06:16;3.80;;;3.38;;
20423;SDS011;10371;49.042;8.002;2023-08-24T03:07:16;3.53;;;3.20;;
20423;SDS011;10371;49.042;8.002;2023-08-24T03:08:16;3.67;;;3.38;;
20423;SDS011;10371;49.042;8.002;2023-08-24T03:09:16;3.30;;;3.10;;
20423;SDS011;10371;49.042;8.002;2023-08-24T03:10:17;3.20;;;3.00;;
20423;SDS011;10371;49.042;8.002;2023-08-24T03:11:17;3.00;;;2.80;;
20423;SDS011;10371;49.042;8.002;2023-08-24T03:12:18;3.95;;;3.45;;
20423;SDS011;10371;49.042;8.002;2023-08-24T03:13:18;3.90;;;3.60;;
20423;SDS011;10371;49.042;8.002;2023-08-24T03:14:18;4.15;;;3.08;;
20423;SDS011;10371;49.042;8.002;2023-08-24T03:15:18;3.67;;;3.38;;
20423;SDS011;10371;49.042;8.002;2023-08-24T03:16:19;3.45;;;3.15;;
20423;SDS011;10371;49.042;8.002;2023-08-24T03:17:20;4.90;;;3.70;;
20423;SDS011;10371;49.042;8.002;2023-08-24T03:18:21;4.82;;;3.38;;
20423;SDS011;10371;49.042;8.002;2023-08-24T03:19:21;3.70;;;3.40;;
20423;SDS011;10371;49.042;8.002;2023-08-24T03:20:21;3.95;;;3.53;;
20423;SDS011;10371;49.042;8.002;2023-08-24T03:21:22;3.60;;;3.30;;
20423;SDS011;10371;49.042;8.002;2023-08-24T03:22:22;3.85;;;3.55;;
20423;SDS011;10371;49.042;8.002;2023-08-24T03:23:23;4.35;;;3.83;;
20423;SDS011;10371;49.042;8.002;2023-08-24T03:24:23;3.80;;;3.50;;
20423;SDS011;10371;49.042;8.002;2023-08-24T03:25:23;4.25;;;3.80;;
20423;SDS011;10371;49.042;8.002;2023-08-24T03:26:24;4.20;;;3.80;;
20423;SDS011;10371;49.042;8.002;2023-08-24T03:27:24;4.13;;;3.75;;
20423;SDS011;10371;49.042;8.002;2023-08-24T03:28:24;3.53;;;3.33;;
20423;SDS011;10371;49.042;8.002;2023-08-24T03:29:24;3.55;;;3.30;;
20423;SDS011;10371;49.042;8.002;2023-08-24T03:30:25;3.70;;;3.40;;
20423;SDS011;10371;49.042;8.002;2023-08-24T03:31:25;3.80;;;3.50;;
20423;SDS011;10371;49.042;8.002;2023-08-24T03:32:26;3.90;;;3.50;;
20423;SDS011;10371;49.042;8.002;2023-08-24T03:33:26;4.20;;;3.90;;
20423;SDS011;10371;49.042;8.002;2023-08-24T03:34:27;4.40;;;3.75;;
20423;SDS011;10371;49.042;8.002;2023-08-24T03:35:33;3.88;;;3.58;;
20423;SDS011;10371;49.042;8.002;2023-08-24T03:36:33;4.53;;;4.13;;
20423;SDS011;10371;49.042;8.002;2023-08-24T03:37:34;4.40;;;4.00;;
20423;SDS011;10371;49.042;8.002;2023-08-24T03:38:34;4.13;;;3.72;;
20423;SDS011;10371;49.042;8.002;2023-08-24T03:39:36;4.63;;;4.22;;
20423;SDS011;10371;49.042;8.002;2023-08-24T03:40:37;4.93;;;4.20;;
20423;SDS011;10371;49.042;8.002;2023-08-24T03:41:38;4.57;;;4.18;;
20423;SDS011;10371;49.042;8.002;2023-08-24T03:42:38;4.60;;;4.20;;
20423;SDS011;10371;49.042;8.002;2023-08-24T03:43:38;4.82;;;4.43;;
20423;SDS011;10371;49.042;8.002;2023-08-24T03:44:39;4.15;;;3.83;;
20423;SDS011;10371;49.042;8.002;2023-08-24T03:45:39;4.60;;;4.03;;
20423;SDS011;10371;49.042;8.002;2023-08-24T03:46:39;4.05;;;3.75;;
20423;SDS011;10371;49.042;8.002;2023-08-24T03:47:39;4.93;;;4.40;;
20423;SDS011;10371;49.042;8.002;2023-08-24T03:48:40;5.10;;;4.70;;
20423;SDS011;10371;49.042;8.002;2023-08-24T03:49:43;4.32;;;3.92;;
20423;SDS011;10371;49.042;8.002;2023-08-24T03:50:44;4.82;;;4.38;;
20423;SDS011;10371;49.042;8.002;2023-08-24T03:51:44;4.60;;;4.20;;
20423;SDS011;10371;49.042;8.002;2023-08-24T03:52:44;4.80;;;4.33;;
20423;SDS011;10371;49.042;8.002;2023-08-24T03:53:44;4.25;;;3.95;;
20423;SDS011;10371;49.042;8.002;2023-08-24T03:54:45;4.28;;;3.88;;
20423;SDS011;10371;49.042;8.002;2023-08-24T03:55:48;7.15;;;4.68;;
20423;SDS011;10371;49.042;8.002;2023-08-24T03:56:49;5.18;;;4.78;;
20423;SDS011;10371;49.042;8.002;2023-08-24T03:57:49;6.50;;;4.68;;
20423;SDS011;10371;49.042;8.002;2023-08-24T03:58:50;4.95;;;4.30;;
20423;SDS011;10371;49.042;8.002;2023-08-24T03:59:50;4.38;;;3.97;;
20423;SDS011;10371;49.042;8.002;2023-08-24T04:00:50;4.45;;;4.05;;
20423;SDS011;10371;49.042;8.002;2023-08-24T04:01:51;4.45;;;4.13;;
20423;SDS011;10371;49.042;8.002;2023-08-24T04:02:51;4.97;;;4.47;;
20423;SDS011;10371;49.042;8.002;2023-08-24T04:03:51;4.72;;;4.32;;
20423;SDS011;10371;49.042;8.002;2023-08-24T04:04:52;4.72;;;4.38;;
20423;SDS011;10371;49.042;8.002;2023-08-24T04:05:52;4.70;;;4.30;;
20423;SDS011;10371;49.042;8.002;2023-08-24T04:06:52;4.53;;;4.10;;
20423;SDS011;10371;49.042;8.002;2023-08-24T04:07:53;5.88;;;4.85;;
20423;SDS011;10371;49.042;8.002;2023-08-24T04:08:53;6.43;;;4.45;;
20423;SDS011;10371;49.042;8.002;2023-08-24T04:09:53;5.18;;;4.78;;
20423;SDS011;10371;49.042;8.002;2023-08-24T04:10:54;4.97;;;4.47;;
20423;SDS011;10371;49.042;8.002;2023-08-24T04:11:54;4.75;;;4.25;;
20423;SDS011;10371;49.042;8.002;2023-08-24T04:12:54;4.30;;;4.00;;
20423;SDS011;10371;49.042;8.002;2023-08-24T04:13:55;4.60;;;4.25;;
20423;SDS011;10371;49.042;8.002;2023-08-24T04:14:55;5.63;;;4.78;;
20423;SDS011;10371;49.042;8.002;2023-08-24T04:15:57;4.80;;;4.35;;
20423;SDS011;10371;49.042;8.002;2023-08-24T04:16:58;4.82;;;4.28;;
20423;SDS011;10371;49.042;8.002;2023-08-24T04:17:59;4.85;;;4.45;;
20423;SDS011;10371;49.042;8.002;2023-08-24T04:18:59;5.80;;;5.28;;
20423;SDS011;10371;49.042;8.002;2023-08-24T04:19:59;5.18;;;4.55;;
20423;SDS011;10371;49.042;8.002;2023-08-24T04:20:59;4.97;;;4.10;;
20423;SDS011;10371;49.042;8.002;2023-08-24T04:22:00;4.85;;;4.40;;
20423;SDS011;10371;49.042;8.002;2023-08-24T04:23:01;5.22;;;4.72;;
20423;SDS011;10371;49.042;8.002;2023-08-24T04:24:02;4.85;;;4.45;;
20423;SDS011;10371;49.042;8.002;2023-08-24T04:25:02;4.40;;;4.10;;
20423;SDS011;10371;49.042;8.002;2023-08-24T04:26:03;5.15;;;4.70;;
20423;SDS011;10371;49.042;8.002;2023-08-24T04:27:05;4.55;;;4.15;;
20423;SDS011;10371;49.042;8.002;2023-08-24T04:28:05;5.35;;;4.85;;
20423;SDS011;10371;49.042;8.002;2023-08-24T04:29:05;4.75;;;4.38;;
20423;SDS011;10371;49.042;8.002;2023-08-24T04:30:06;4.25;;;3.95;;
20423;SDS011;10371;49.042;8.002;2023-08-24T04:31:11;4.28;;;3.88;;
20423;SDS011;10371;49.042;8.002;2023-08-24T04:32:11;4.70;;;4.30;;
20423;SDS011;10371;49.042;8.002;2023-08-24T04:33:11;4.60;;;4.20;;
20423;SDS011;10371;49.042;8.002;2023-08-24T04:34:12;5.03;;;4.63;;
20423;SDS011;10371;49.042;8.002;2023-08-24T04:35:12;5.28;;;4.20;;
20423;SDS011;10371;49.042;8.002;2023-08-24T04:36:12;4.43;;;4.13;;
20423;SDS011;10371;49.042;8.002;2023-08-24T04:37:13;5.25;;;4.75;;
20423;SDS011;10371;49.042;8.002;2023-08-24T04:38:13;5.22;;;4.13;;
20423;SDS011;10371;49.042;8.002;2023-08-24T04:39:13;4.53;;;4.13;;
20423;SDS011;10371;49.042;8.002;2023-08-24T04:40:14;5.05;;;4.55;;
20423;SDS011;10371;49.042;8.002;2023-08-24T04:41:14;4.85;;;4.45;;
20423;SDS011;10371;49.042;8.002;2023-08-24T04:42:14;5.07;;;4.68;;
20423;SDS011;10371;49.042;8.002;2023-08-24T04:43:14;4.88;;;4.47;;
20423;SDS011;10371;49.042;8.002;2023-08-24T04:44:15;4.50;;;4.10;;
20423;SDS011;10371;49.042;8.002;2023-08-24T04:45:15;4.50;;;4.10;;
20423;SDS011;10371;49.042;8.002;2023-08-24T04:46:15;6.53;;;4.90;;
20423;SDS011;10371;49.042;8.002;2023-08-24T04:47:15;4.20;;;3.80;;
20423;SDS011;10371;49.042;8.002;2023-08-24T04:48:16;5.05;;;4.57;;
20423;SDS011;10371;49.042;8.002;2023-08-24T04:49:16;4.53;;;4.13;;
20423;SDS011;10371;49.042;8.002;2023-08-24T04:50:16;4.80;;;4.40;;
20423;SDS011;10371;49.042;8.002;2023-08-24T04:51:16;4.40;;;4.05;;
20423;SDS011;10371;49.042;8.002;2023-08-24T04:52:17;4.78;;;4.40;;
20423;SDS011;10371;49.042;8.002;2023-08-24T04:53:17;4.10;;;3.80;;
20423;SDS011;10371;49.042;8.002;2023-08-24T04:54:18;4.30;;;3.90;;
20423;SDS011;10371;49.042;8.002;2023-08-24T04:55:18;4.30;;;3.90;;
20423;SDS011;10371;49.042;8.002;2023-08-24T04:56:19;5.82;;;4.00;;
20423;SDS011;10371;49.042;8.002;2023-08-24T04:57:19;4.30;;;3.80;;
20423;SDS011;10371;49.042;8.002;2023-08-24T04:58:19;4.25;;;3.95;;
20423;SDS011;10371;49.042;8.002;2023-08-24T04:59:20;4.00;;;3.70;;
20423;SDS011;10371;49.042;8.002;2023-08-24T05:00:20;5.22;;;4.10;;
20423;SDS011;10371;49.042;8.002;2023-08-24T05:01:21;5.30;;;4.18;;
20423;SDS011;10371;49.042;8.002;2023-08-24T05:02:21;4.25;;;3.90;;
20423;SDS011;10371;49.042;8.002;2023-08-24T05:03:21;4.30;;;4.00;;
20423;SDS011;10371;49.042;8.002;2023-08-24T05:04:21;4.53;;;3.90;;
20423;SDS011;10371;49.042;8.002;2023-08-24T05:05:22;3.90;;;3.60;;
20423;SDS011;10371;49.042;8.002;2023-08-24T05:06:22;4.45;;;4.03;;
20423;SDS011;10371;49.042;8.002;2023-08-24T05:07:22;4.22;;;3.83;;
20423;SDS011;10371;49.042;8.002;2023-08-24T05:08:23;4.75;;;4.03;;
20423;SDS011;10371;49.042;8.002;2023-08-24T05:09:23;5.20;;;4.20;;
20423;SDS011;10371;49.042;8.002;2023-08-24T05:10:24;4.45;;;3.55;;
20423;SDS011;10371;49.042;8.002;2023-08-24T05:11:26;4.43;;;4.03;;
20423;SDS011;10371;49.042;8.002;2023-08-24T05:12:29;4.45;;;4.05;;
20423;SDS011;10371;49.042;8.002;2023-08-24T05:13:29;4.47;;;4.07;;
20423;SDS011;10371;49.042;8.002;2023-08-24T05:14:29;4.20;;;3.90;;
20423;SDS011;10371;49.042;8.002;2023-08-24T05:15:32;4.45;;;3.70;;
20423;SDS011;10371;49.042;8.002;2023-08-24T05:16:32;4.10;;;3.72;;
20423;SDS011;10371;49.042;8.002;2023-08-24T05:17:32;4.80;;;3.60;;
20423;SDS011;10371;49.042;8.002;2023-08-24T05:18:33;4.93;;;3.63;;
20423;SDS011;10371;49.042;8.002;2023-08-24T05:19:35;4.15;;;3.72;;
20423;SDS011;10371;49.042;8.002;2023-08-24T05:20:35;3.80;;;3.50;;
20423;SDS011;10371;49.042;8.002;2023-08-24T05:21:35;4.60;;;3.75;;
20423;SDS011;10371;49.042;8.002;2023-08-24T05:22:36;5.20;;;3.67;;
20423;SDS011;10371;49.042;8.002;2023-08-24T05:23:36;4.22;;;3.80;;
20423;SDS011;10371;49.042;8.002;2023-08-24T05:24:37;4.30;;;3.88;;
20423;SDS011;10371;49.042;8.002;2023-08-24T05:25:37;4.40;;;3.80;;
20423;SDS011;10371;49.042;8.002;2023-08-24T05:26:37;5.10;;;3.70;;
20423;SDS011;10371;49.042;8.002;2023-08-24T05:27:38;4.85;;;3.45;;
20423;SDS011;10371;49.042;8.002;2023-08-24T05:28:39;4.38;;;3.60;;
20423;SDS011;10371;49.042;8.002;2023-08-24T05:29:39;4.22;;;3.83;;
20423;SDS011;10371;49.042;8.002;2023-08-24T05:30:39;4.00;;;3.70;;
20423;SDS011;10371;49.042;8.002;2023-08-24T05:31:40;5.95;;;3.50;;
20423;SDS011;10371;49.042;8.002;2023-08-24T05:32:40;3.95;;;3.63;;
20423;SDS011;10371;49.042;8.002;2023-08-24T05:33:40;4.13;;;3.53;;
20423;SDS011;10371;49.042;8.002;2023-08-24T05:34:40;3.95;;;3.58;;
20423;SDS011;10371;49.042;8.002;2023-08-24T05:35:41;4.40;;;3.80;;
20423;SDS011;10371;49.042;8.002;2023-08-24T05:36:42;4.25;;;3.33;;
20423;SDS011;10371;49.042;8.002;2023-08-24T05:37:42;4.32;;;3.70;;
20423;SDS011;10371;49.042;8.002;2023-08-24T05:38:42;4.75;;;3.72;;
20423;SDS011;10371;49.042;8.002;2023-08-24T05:39:47;4.00;;;3.58;;
20423;SDS011;10371;49.042;8.002;2023-08-24T05:40:47;4.30;;;3.20;;
20423;SDS011;10371;49.042;8.002;2023-08-24T05:41:51;3.92;;;3.55;;
20423;SDS011;10371;49.042;8.002;2023-08-24T05:42:52;3.90;;;3.60;;
20423;SDS011;10371;49.042;8.002;2023-08-24T05:43:53;5.70;;;3.58;;
20423;SDS011;10371;49.042;8.002;2023-08-24T05:44:53;3.85;;;3.55;;
20423;SDS011;10371;49.042;8.002;2023-08-24T05:45:54;4.60;;;3.83;;
20423;SDS011;10371;49.042;8.002;2023-08-24T05:46:54;3.65;;;3.35;;
20423;SDS011;10371;49.042;8.002;2023-08-24T05:47:54;4.05;;;3.28;;
20423;SDS011;10371;49.042;8.002;2023-08-24T05:48:55;3.90;;;3.53;;
20423;SDS011;10371;49.042;8.002;2023-08-24T05:49:58;4.95;;;3.38;;
20423;SDS011;10371;49.042;8.002;2023-08-24T05:50:58;4.18;;;3.20;;
20423;SDS011;10371;49.042;8.002;2023-08-24T05:51:58;3.88;;;3.22;;
20423;SDS011;10371;49.042;8.002;2023-08-24T05:52:59;3.75;;;3.35;;
20423;SDS011;10371;49.042;8.002;2023-08-24T05:53:59;4.00;;;3.60;;
20423;SDS011;10371;49.042;8.002;2023-08-24T05:55:00;3.60;;;3.30;;
20423;SDS011;10371;49.042;8.002;2023-08-24T05:56:00;3.67;;;3.25;;
20423;SDS011;10371;49.042;8.002;2023-08-24T05:57:01;4.38;;;3.15;;
20423;SDS011;10371;49.042;8.002;2023-08-24T05:58:01;5.10;;;3.03;;
20423;SDS011;10371;49.042;8.002;2023-08-24T05:59:01;6.22;;;3.28;;
20423;SDS011;10371;49.042;8.002;2023-08-24T06:00:03;3.17;;;2.80;;
20423;SDS011;10371;49.042;8.002;2023-08-24T06:01:09;3.30;;;3.00;;
20423;SDS011;10371;49.042;8.002;2023-08-24T06:02:09;3.80;;;3.17;;
20423;SDS011;10371;49.042;8.002;2023-08-24T06:03:10;4.90;;;3.10;;
20423;SDS011;10371;49.042;8.002;2023-08-24T06:04:11;4.20;;;3.05;;
20423;SDS011;10371;49.042;8.002;2023-08-24T06:05:11;3.42;;;3.03;;
20423;SDS011;10371;49.042;8.002;2023-08-24T06:06:12;4.25;;;3.03;;
20423;SDS011;10371;49.042;8.002;2023-08-24T06:07:12;4.20;;;3.10;;
20423;SDS011;10371;49.042;8.002;2023-08-24T06:08:12;3.15;;;2.80;;
20423;SDS011;10371;49.042;8.002;2023-08-24T06:09:13;4.63;;;3.05;;
20423;SDS011;10371;49.042;8.002;2023-08-24T06:10:15;4.85;;;3.13;;
20423;SDS011;10371;49.042;8.002;2023-08-24T06:11:15;3.42;;;3.13;;
20423;SDS011;10371;49.042;8.002;2023-08-24T06:12:15;3.35;;;2.83;;
20423;SDS011;10371;49.042;8.002;2023-08-24T06:13:15;3.20;;;2.75;;